sensor_id;sensor_type;location;lat;lon;timestamp;pressure;altitude;pressure_sealevel;temperature;humidity
23473;BME280;11909;52.516;13.564;2022-08-18T00:00:30;100449.50;;;23.93;60.27
23473;BME280;11909;52.516;13.564;2022-08-18T00:03:00;100446.22;;;23.87;60.43
23473;BME280;11909;52.516;13.564;2022-08-18T00:05:29;100446.63;;;23.89;60.55
23473;BME280;11909;52.516;13.564;2022-08-18T00:07:56;100447.03;;;23.88;60.74
23473;BME280;11909;52.516;13.564;2022-08-18T00:10:23;100441.31;;;23.81;60.58
23473;BME280;11909;52.516;13.564;2022-08-18T00:12:49;100445.28;;;23.80;60.66
23473;BME280;11909;52.516;13.564;2022-08-18T00:15:16;100446.41;;;23.75;60.64
23473;BME280;11909;52.516;13.564;2022-08-18T00:17:43;100442.34;;;23.69;61.32
23473;BME280;11909;52.516;13.564;2022-08-18T00:20:13;100449.06;;;23.64;61.57
23473;BME280;11909;52.516;13.564;2022-08-18T00:22:40;100451.06;;;23.63;61.47
23473;BME280;11909;52.516;13.564;2022-08-18T00:25:09;100449.06;;;23.64;61.12
23473;BME280;11909;52.516;13.564;2022-08-18T00:27:37;100449.03;;;23.60;61.60
23473;BME280;11909;52.516;13.564;2022-08-18T00:30:07;100448.22;;;23.60;61.50
23473;BME280;11909;52.516;13.564;2022-08-18T00:32:37;100440.19;;;23.58;61.26
23473;BME280;11909;52.516;13.564;2022-08-18T00:35:06;100438.53;;;23.54;61.18
23473;BME280;11909;52.516;13.564;2022-08-18T00:37:34;100435.38;;;23.55;61.37
23473;BME280;11909;52.516;13.564;2022-08-18T00:40:02;100438.88;;;23.52;61.21
23473;BME280;11909;52.516;13.564;2022-08-18T00:42:29;100433.25;;;23.48;61.49
23473;BME280;11909;52.516;13.564;2022-08-18T00:44:58;100430.03;;;23.46;61.48
23473;BME280;11909;52.516;13.564;2022-08-18T00:47:25;100434.00;;;23.45;61.42
23473;BME280;11909;52.516;13.564;2022-08-18T00:49:53;100425.63;;;23.45;61.41
23473;BME280;11909;52.516;13.564;2022-08-18T00:52:21;100427.91;;;23.40;61.33
23473;BME280;11909;52.516;13.564;2022-08-18T00:54:51;100434.28;;;23.37;61.42
23473;BME280;11909;52.516;13.564;2022-08-18T00:57:21;100426.25;;;23.35;61.82
23473;BME280;11909;52.516;13.564;2022-08-18T00:59:53;100425.44;;;23.34;61.94
23473;BME280;11909;52.516;13.564;2022-08-18T01:02:25;100423.84;;;23.33;61.71
23473;BME280;11909;52.516;13.564;2022-08-18T01:04:56;100433.03;;;23.34;61.40
23473;BME280;11909;52.516;13.564;2022-08-18T01:07:26;100430.91;;;23.27;61.77
23473;BME280;11909;52.516;13.564;2022-08-18T01:09:56;100426.94;;;23.28;61.58
23473;BME280;11909;52.516;13.564;2022-08-18T01:12:24;100421.72;;;23.27;61.76
23473;BME280;11909;52.516;13.564;2022-08-18T01:14:52;100415.66;;;23.25;61.70
23473;BME280;11909;52.516;13.564;2022-08-18T01:17:20;100415.25;;;23.23;62.10
23473;BME280;11909;52.516;13.564;2022-08-18T01:20:05;100408.81;;;23.22;61.90
23473;BME280;11909;52.516;13.564;2022-08-18T01:22:57;100413.63;;;23.22;62.61
23473;BME280;11909;52.516;13.564;2022-08-18T01:25:25;100414.75;;;23.17;62.48
23473;BME280;11909;52.516;13.564;2022-08-18T01:28:09;100416.69;;;23.13;62.46
23473;BME280;11909;52.516;13.564;2022-08-18T01:30:45;100422.28;;;23.13;62.48
23473;BME280;11909;52.516;13.564;2022-08-18T01:33:12;100416.59;;;23.09;62.92
23473;BME280;11909;52.516;13.564;2022-08-18T01:35:39;100424.22;;;23.09;62.94
23473;BME280;11909;52.516;13.564;2022-08-18T01:38:09;100415.34;;;23.06;62.85
23473;BME280;11909;52.516;13.564;2022-08-18T01:40:37;100413.81;;;23.09;62.74
23473;BME280;11909;52.516;13.564;2022-08-18T01:43:04;100416.19;;;23.07;62.79
23473;BME280;11909;52.516;13.564;2022-08-18T01:45:30;100416.53;;;23.05;62.95
23473;BME280;11909;52.516;13.564;2022-08-18T01:47:57;100415.31;;;23.03;63.09
23473;BME280;11909;52.516;13.564;2022-08-18T01:50:24;100416.06;;;23.00;63.60
23473;BME280;11909;52.516;13.564;2022-08-18T01:52:51;100411.16;;;22.93;63.66
23473;BME280;11909;52.516;13.564;2022-08-18T01:55:19;100411.03;;;22.86;63.54
23473;BME280;11909;52.516;13.564;2022-08-18T01:57:46;100402.56;;;22.82;63.89
23473;BME280;11909;52.516;13.564;2022-08-18T02:00:15;100394.44;;;22.73;63.76
23473;BME280;11909;52.516;13.564;2022-08-18T02:02:42;100395.25;;;22.74;63.53
23473;BME280;11909;52.516;13.564;2022-08-18T02:05:11;100398.03;;;22.74;63.48
23473;BME280;11909;52.516;13.564;2022-08-18T02:07:39;100397.53;;;22.68;63.59
23473;BME280;11909;52.516;13.564;2022-08-18T02:10:07;100404.25;;;22.63;64.18
23473;BME280;11909;52.516;13.564;2022-08-18T02:12:36;100389.47;;;22.63;64.21
23473;BME280;11909;52.516;13.564;2022-08-18T02:15:03;100389.50;;;22.67;64.44
23473;BME280;11909;52.516;13.564;2022-08-18T02:17:35;100381.44;;;22.61;64.66
23473;BME280;11909;52.516;13.564;2022-08-18T02:20:03;100381.06;;;22.63;64.47
23473;BME280;11909;52.516;13.564;2022-08-18T02:22:30;100376.94;;;22.57;65.22
23473;BME280;11909;52.516;13.564;2022-08-18T02:24:56;100376.81;;;22.49;65.32
23473;BME280;11909;52.516;13.564;2022-08-18T02:27:26;100373.81;;;22.39;65.94
23473;BME280;11909;52.516;13.564;2022-08-18T02:29:54;100375.41;;;22.40;65.76
23473;BME280;11909;52.516;13.564;2022-08-18T02:32:20;100374.56;;;22.35;65.59
23473;BME280;11909;52.516;13.564;2022-08-18T02:34:47;100364.13;;;22.32;65.83
23473;BME280;11909;52.516;13.564;2022-08-18T02:37:13;100373.00;;;22.38;65.47
23473;BME280;11909;52.516;13.564;2022-08-18T02:39:39;100376.53;;;22.35;65.58
23473;BME280;11909;52.516;13.564;2022-08-18T02:42:07;100375.34;;;22.36;65.68
23473;BME280;11909;52.516;13.564;2022-08-18T02:44:33;100369.31;;;22.34;65.59
23473;BME280;11909;52.516;13.564;2022-08-18T02:47:01;100374.16;;;22.37;64.95
23473;BME280;11909;52.516;13.564;2022-08-18T02:49:28;100369.41;;;22.38;64.44
23473;BME280;11909;52.516;13.564;2022-08-18T02:51:54;100374.13;;;22.33;64.40
23473;BME280;11909;52.516;13.564;2022-08-18T02:54:22;100367.66;;;22.29;64.38
23473;BME280;11909;52.516;13.564;2022-08-18T02:56:50;100379.19;;;22.28;64.54
23473;BME280;11909;52.516;13.564;2022-08-18T02:59:19;100377.94;;;22.25;64.35
23473;BME280;11909;52.516;13.564;2022-08-18T03:01:49;100377.66;;;22.30;64.70
23473;BME280;11909;52.516;13.564;2022-08-18T03:04:18;100378.41;;;22.27;64.65
23473;BME280;11909;52.516;13.564;2022-08-18T03:06:45;100371.91;;;22.23;64.93
23473;BME280;11909;52.516;13.564;2022-08-18T03:09:14;100377.50;;;22.23;64.68
23473;BME280;11909;52.516;13.564;2022-08-18T03:11:41;100377.72;;;22.14;65.18
23473;BME280;11909;52.516;13.564;2022-08-18T03:14:08;100369.72;;;22.13;64.94
23473;BME280;11909;52.516;13.564;2022-08-18T03:16:37;100376.50;;;22.12;64.99
23473;BME280;11909;52.516;13.564;2022-08-18T03:19:04;100383.19;;;22.07;64.75
23473;BME280;11909;52.516;13.564;2022-08-18T03:21:33;100380.38;;;22.07;64.80
23473;BME280;11909;52.516;13.564;2022-08-18T03:24:00;100381.56;;;22.06;64.88
23473;BME280;11909;52.516;13.564;2022-08-18T03:26:27;100382.75;;;22.05;64.58
23473;BME280;11909;52.516;13.564;2022-08-18T03:28:54;100382.50;;;22.14;64.03
23473;BME280;11909;52.516;13.564;2022-08-18T03:31:22;100386.56;;;22.16;64.48
23473;BME280;11909;52.516;13.564;2022-08-18T03:33:50;100387.44;;;22.01;64.50
23473;BME280;11909;52.516;13.564;2022-08-18T03:36:18;100377.75;;;21.95;65.61
23473;BME280;11909;52.516;13.564;2022-08-18T03:38:48;100373.25;;;21.90;66.99
23473;BME280;11909;52.516;13.564;2022-08-18T03:41:17;100370.03;;;21.88;67.69
23473;BME280;11909;52.516;13.564;2022-08-18T03:43:44;100382.28;;;21.83;67.76
23473;BME280;11909;52.516;13.564;2022-08-18T03:46:13;100385.91;;;21.84;67.76
23473;BME280;11909;52.516;13.564;2022-08-18T03:48:41;100385.38;;;21.78;67.58
23473;BME280;11909;52.516;13.564;2022-08-18T03:51:21;100385.69;;;21.73;67.78
23473;BME280;11909;52.516;13.564;2022-08-18T03:53:50;100387.66;;;21.72;67.04
23473;BME280;11909;52.516;13.564;2022-08-18T03:56:19;100387.22;;;21.70;66.82
23473;BME280;11909;52.516;13.564;2022-08-18T03:58:48;100400.28;;;21.66;66.57
23473;BME280;11909;52.516;13.564;2022-08-18T04:01:17;100399.19;;;21.71;66.46
23473;BME280;11909;52.516;13.564;2022-08-18T04:03:46;100399.56;;;21.69;66.47
23473;BME280;11909;52.516;13.564;2022-08-18T04:06:14;100395.22;;;21.72;66.07
23473;BME280;11909;52.516;13.564;2022-08-18T04:08:41;100403.16;;;21.70;65.88
23473;BME280;11909;52.516;13.564;2022-08-18T04:11:10;100405.88;;;21.66;65.92
23473;BME280;11909;52.516;13.564;2022-08-18T04:13:38;100401.56;;;21.69;66.68
23473;BME280;11909;52.516;13.564;2022-08-18T04:16:05;100404.41;;;21.72;66.27
23473;BME280;11909;52.516;13.564;2022-08-18T04:18:32;100410.28;;;21.67;66.35
23473;BME280;11909;52.516;13.564;2022-08-18T04:21:01;100407.84;;;21.66;66.15
23473;BME280;11909;52.516;13.564;2022-08-18T04:23:28;100409.38;;;21.63;66.26
23473;BME280;11909;52.516;13.564;2022-08-18T04:25:55;100413.25;;;21.58;66.97
23473;BME280;11909;52.516;13.564;2022-08-18T04:28:24;100420.34;;;21.56;67.42
23473;BME280;11909;52.516;13.564;2022-08-18T04:30:51;100425.25;;;21.59;67.79
23473;BME280;11909;52.516;13.564;2022-08-18T04:33:18;100423.34;;;21.63;67.69
23473;BME280;11909;52.516;13.564;2022-08-18T04:35:45;100413.69;;;21.60;67.72
23473;BME280;11909;52.516;13.564;2022-08-18T04:38:12;100418.47;;;21.60;67.90
23473;BME280;11909;52.516;13.564;2022-08-18T04:40:38;100414.94;;;21.63;68.06
23473;BME280;11909;52.516;13.564;2022-08-18T04:43:05;100416.13;;;21.62;68.21
23473;BME280;11909;52.516;13.564;2022-08-18T04:45:37;100416.78;;;21.55;68.33
23473;BME280;11909;52.516;13.564;2022-08-18T04:48:04;100418.38;;;21.56;69.00
23473;BME280;11909;52.516;13.564;2022-08-18T04:50:31;100416.03;;;21.58;69.52
23473;BME280;11909;52.516;13.564;2022-08-18T04:52:58;100411.97;;;21.56;70.07
23473;BME280;11909;52.516;13.564;2022-08-18T04:55:45;100415.25;;;21.58;69.90
23473;BME280;11909;52.516;13.564;2022-08-18T04:58:12;100417.66;;;21.59;70.05
23473;BME280;11909;52.516;13.564;2022-08-18T05:00:42;100424.84;;;21.60;69.99
23473;BME280;11909;52.516;13.564;2022-08-18T05:03:09;100427.59;;;21.57;70.10
23473;BME280;11909;52.516;13.564;2022-08-18T05:05:36;100421.19;;;21.56;70.30
23473;BME280;11909;52.516;13.564;2022-08-18T05:08:03;100421.19;;;21.56;70.73
23473;BME280;11909;52.516;13.564;2022-08-18T05:10:30;100423.25;;;21.59;70.89
23473;BME280;11909;52.516;13.564;2022-08-18T05:12:56;100425.78;;;21.65;71.30
23473;BME280;11909;52.516;13.564;2022-08-18T05:15:22;100427.84;;;21.68;71.32
23473;BME280;11909;52.516;13.564;2022-08-18T05:17:50;100430.38;;;21.73;71.28
23473;BME280;11909;52.516;13.564;2022-08-18T05:20:18;100422.47;;;21.78;71.01
23473;BME280;11909;52.516;13.564;2022-08-18T05:22:44;100422.47;;;21.78;70.81
23473;BME280;11909;52.516;13.564;2022-08-18T05:25:11;100415.03;;;21.83;70.71
23473;BME280;11909;52.516;13.564;2022-08-18T05:27:40;100423.09;;;21.88;70.63
23473;BME280;11909;52.516;13.564;2022-08-18T05:30:09;100429.47;;;21.88;70.39
23473;BME280;11909;52.516;13.564;2022-08-18T05:32:38;100429.88;;;21.87;69.89
23473;BME280;11909;52.516;13.564;2022-08-18T05:35:10;100433.88;;;21.89;69.93
23473;BME280;11909;52.516;13.564;2022-08-18T05:37:44;100440.38;;;21.94;70.32
23473;BME280;11909;52.516;13.564;2022-08-18T05:40:19;100436.41;;;21.95;69.92
23473;BME280;11909;52.516;13.564;2022-08-18T05:42:47;100432.50;;;21.99;70.55
23473;BME280;11909;52.516;13.564;2022-08-18T05:45:16;100428.19;;;22.02;70.41
23473;BME280;11909;52.516;13.564;2022-08-18T05:47:43;100428.63;;;22.04;70.48
23473;BME280;11909;52.516;13.564;2022-08-18T05:50:13;100428.63;;;22.04;69.95
23473;BME280;11909;52.516;13.564;2022-08-18T05:52:48;100442.25;;;22.05;69.49
23473;BME280;11909;52.516;13.564;2022-08-18T05:55:25;100436.25;;;22.07;68.87
23473;BME280;11909;52.516;13.564;2022-08-18T05:58:15;100431.56;;;22.11;68.98
23473;BME280;11909;52.516;13.564;2022-08-18T06:00:47;100435.63;;;22.14;69.18
23473;BME280;11909;52.516;13.564;2022-08-18T06:03:20;100441.28;;;22.17;68.84
23473;BME280;11909;52.516;13.564;2022-08-18T06:05:54;100436.13;;;22.19;68.60
23473;BME280;11909;52.516;13.564;2022-08-18T06:08:25;100433.03;;;22.25;68.02
23473;BME280;11909;52.516;13.564;2022-08-18T06:10:52;100438.28;;;22.26;67.72
23473;BME280;11909;52.516;13.564;2022-08-18T06:13:20;100441.13;;;22.30;67.61
23473;BME280;11909;52.516;13.564;2022-08-18T06:15:51;100438.84;;;22.35;67.54
23473;BME280;11909;52.516;13.564;2022-08-18T06:18:36;100436.91;;;22.40;68.01
23473;BME280;11909;52.516;13.564;2022-08-18T06:21:20;100436.63;;;22.45;67.74
23473;BME280;11909;52.516;13.564;2022-08-18T06:23:55;100437.97;;;22.51;67.75
23473;BME280;11909;52.516;13.564;2022-08-18T06:26:33;100443.69;;;22.58;68.65
23473;BME280;11909;52.516;13.564;2022-08-18T06:29:13;100447.06;;;22.68;69.17
23473;BME280;11909;52.516;13.564;2022-08-18T06:31:47;100452.38;;;22.73;68.07
23473;BME280;11909;52.516;13.564;2022-08-18T06:34:24;100452.09;;;22.82;67.31
23473;BME280;11909;52.516;13.564;2022-08-18T06:37:01;100463.94;;;22.95;63.77
23473;BME280;11909;52.516;13.564;2022-08-18T06:39:35;100465.28;;;23.04;62.05
23473;BME280;11909;52.516;13.564;2022-08-18T06:42:07;100474.59;;;23.09;61.62
23473;BME280;11909;52.516;13.564;2022-08-18T06:44:38;100476.31;;;23.17;61.60
23473;BME280;11909;52.516;13.564;2022-08-18T06:47:13;100484.50;;;23.26;61.14
23473;BME280;11909;52.516;13.564;2022-08-18T06:49:45;100485.44;;;23.33;61.72
23473;BME280;11909;52.516;13.564;2022-08-18T06:52:22;100492.44;;;23.47;58.52
23473;BME280;11909;52.516;13.564;2022-08-18T06:54:49;100492.50;;;23.51;58.55
23473;BME280;11909;52.516;13.564;2022-08-18T06:57:26;100489.00;;;23.57;59.54
23473;BME280;11909;52.516;13.564;2022-08-18T06:59:56;100489.09;;;23.65;59.29
23473;BME280;11909;52.516;13.564;2022-08-18T07:02:24;100493.25;;;23.74;58.22
23473;BME280;11909;52.516;13.564;2022-08-18T07:05:00;100490.50;;;23.78;58.31
23473;BME280;11909;52.516;13.564;2022-08-18T07:07:33;100489.75;;;23.81;57.79
23473;BME280;11909;52.516;13.564;2022-08-18T07:10:00;100495.03;;;23.86;57.25
23473;BME280;11909;52.516;13.564;2022-08-18T07:12:28;100499.88;;;23.89;57.33
23473;BME280;11909;52.516;13.564;2022-08-18T07:14:56;100494.25;;;23.89;57.41
23473;BME280;11909;52.516;13.564;2022-08-18T07:17:26;100497.50;;;23.91;57.61
23473;BME280;11909;52.516;13.564;2022-08-18T07:19:59;100495.94;;;23.94;57.63
23473;BME280;11909;52.516;13.564;2022-08-18T07:22:26;100496.88;;;24.02;57.91
23473;BME280;11909;52.516;13.564;2022-08-18T07:24:56;100486.94;;;24.08;56.88
23473;BME280;11909;52.516;13.564;2022-08-18T07:27:40;100488.94;;;24.08;57.45
23473;BME280;11909;52.516;13.564;2022-08-18T07:30:09;100478.19;;;24.13;58.68
23473;BME280;11909;52.516;13.564;2022-08-18T07:32:41;100479.44;;;24.16;58.74
23473;BME280;11909;52.516;13.564;2022-08-18T07:35:12;100479.09;;;24.21;59.53
23473;BME280;11909;52.516;13.564;2022-08-18T07:37:44;100482.00;;;24.28;58.45
23473;BME280;11909;52.516;13.564;2022-08-18T07:40:19;100492.00;;;24.29;56.69
23473;BME280;11909;52.516;13.564;2022-08-18T07:42:51;100487.66;;;24.32;57.99
23473;BME280;11909;52.516;13.564;2022-08-18T07:45:22;100489.69;;;24.35;57.51
23473;BME280;11909;52.516;13.564;2022-08-18T07:47:53;100491.72;;;24.38;57.30
23473;BME280;11909;52.516;13.564;2022-08-18T07:50:20;100480.56;;;24.42;57.86
23473;BME280;11909;52.516;13.564;2022-08-18T07:52:51;100489.44;;;24.47;56.66
23473;BME280;11909;52.516;13.564;2022-08-18T07:55:28;100488.63;;;24.47;57.68
23473;BME280;11909;52.516;13.564;2022-08-18T07:57:57;100490.25;;;24.48;58.93
23473;BME280;11909;52.516;13.564;2022-08-18T08:00:31;100498.72;;;24.52;60.01
23473;BME280;11909;52.516;13.564;2022-08-18T08:03:05;100493.53;;;24.54;60.19
23473;BME280;11909;52.516;13.564;2022-08-18T08:05:41;100492.75;;;24.57;59.89
23473;BME280;11909;52.516;13.564;2022-08-18T08:08:19;100500.78;;;24.58;58.63
23473;BME280;11909;52.516;13.564;2022-08-18T08:11:00;100505.22;;;24.59;58.23
23473;BME280;11909;52.516;13.564;2022-08-18T08:13:38;100503.63;;;24.62;58.62
23473;BME280;11909;52.516;13.564;2022-08-18T08:16:15;100502.06;;;24.65;59.04
23473;BME280;11909;52.516;13.564;2022-08-18T08:18:52;100511.75;;;24.71;55.97
23473;BME280;11909;52.516;13.564;2022-08-18T08:21:23;100506.94;;;24.71;57.32
23473;BME280;11909;52.516;13.564;2022-08-18T08:23:54;100508.56;;;24.72;57.79
23473;BME280;11909;52.516;13.564;2022-08-18T08:26:37;100511.41;;;24.76;56.92
23473;BME280;11909;52.516;13.564;2022-08-18T08:29:17;100504.25;;;24.79;57.50
23473;BME280;11909;52.516;13.564;2022-08-18T08:31:49;100504.72;;;24.84;58.87
23473;BME280;11909;52.516;13.564;2022-08-18T08:34:23;100509.16;;;24.89;58.21
23473;BME280;11909;52.516;13.564;2022-08-18T08:36:54;100512.00;;;24.92;57.47
23473;BME280;11909;52.516;13.564;2022-08-18T08:39:25;100509.25;;;24.96;57.96
23473;BME280;11909;52.516;13.564;2022-08-18T08:42:00;100518.09;;;25.02;58.37
23473;BME280;11909;52.516;13.564;2022-08-18T08:44:33;100511.34;;;25.06;58.40
23473;BME280;11909;52.516;13.564;2022-08-18T08:47:02;100506.97;;;25.09;58.42
23473;BME280;11909;52.516;13.564;2022-08-18T08:49:36;100515.84;;;25.15;54.81
23473;BME280;11909;52.516;13.564;2022-08-18T08:52:08;100518.28;;;25.20;56.51
23473;BME280;11909;52.516;13.564;2022-08-18T08:54:47;100517.56;;;25.27;55.02
23473;BME280;11909;52.516;13.564;2022-08-18T08:57:18;100510.38;;;25.33;55.06
23473;BME280;11909;52.516;13.564;2022-08-18T08:59:48;100502.00;;;25.40;56.42
23473;BME280;11909;52.516;13.564;2022-08-18T09:05:23;100503.78;;;25.59;54.56
23473;BME280;11909;52.516;13.564;2022-08-18T09:08:11;100497.47;;;25.77;54.15
23473;BME280;11909;52.516;13.564;2022-08-18T09:11:25;100499.19;;;25.92;53.87
23473;BME280;11909;52.516;13.564;2022-08-18T09:14:16;100494.84;;;26.10;54.86
23473;BME280;11909;52.516;13.564;2022-08-18T09:16:57;100496.22;;;26.38;52.30
23473;BME280;11909;52.516;13.564;2022-08-18T09:19:45;100496.28;;;26.56;53.11
23473;BME280;11909;52.516;13.564;2022-08-18T09:22:25;100497.94;;;26.71;51.45
23473;BME280;11909;52.516;13.564;2022-08-18T09:24:57;100493.13;;;26.79;51.36
23473;BME280;11909;52.516;13.564;2022-08-18T09:27:31;100494.38;;;26.89;52.10
23473;BME280;11909;52.516;13.564;2022-08-18T09:30:05;100484.75;;;27.01;51.94
23473;BME280;11909;52.516;13.564;2022-08-18T09:32:51;100488.38;;;27.16;49.76
23473;BME280;11909;52.516;13.564;2022-08-18T09:35:41;100482.75;;;27.30;48.87
23473;BME280;11909;52.516;13.564;2022-08-18T09:38:14;100479.50;;;27.43;48.53
23473;BME280;11909;52.516;13.564;2022-08-18T09:41:06;100482.34;;;27.57;49.46
23473;BME280;11909;52.516;13.564;2022-08-18T09:43:57;100474.25;;;27.77;48.13
23473;BME280;11909;52.516;13.564;2022-08-18T09:46:58;100482.66;;;27.99;47.81
23473;BME280;11909;52.516;13.564;2022-08-18T09:49:40;100470.56;;;28.10;47.24
23473;BME280;11909;52.516;13.564;2022-08-18T09:55:50;100478.97;;;28.31;45.82
23473;BME280;11909;52.516;13.564;2022-08-18T10:01:24;100464.41;;;28.40;46.07
23473;BME280;11909;52.516;13.564;2022-08-18T10:04:26;100468.34;;;28.54;45.81
23473;BME280;11909;52.516;13.564;2022-08-18T10:06:54;100471.09;;;28.68;46.05
23473;BME280;11909;52.516;13.564;2022-08-18T10:09:44;100466.59;;;28.82;44.17
23473;BME280;11909;52.516;13.564;2022-08-18T10:12:42;100466.50;;;28.93;43.81
23473;BME280;11909;52.516;13.564;2022-08-18T10:15:31;100462.81;;;29.03;43.04
23473;BME280;11909;52.516;13.564;2022-08-18T10:18:17;100455.41;;;29.20;42.03
23473;BME280;11909;52.516;13.564;2022-08-18T10:20:59;100449.19;;;29.43;42.52
23473;BME280;11909;52.516;13.564;2022-08-18T10:23:46;100460.28;;;29.65;40.80
23473;BME280;11909;52.516;13.564;2022-08-18T10:29:49;100460.50;;;29.82;40.30
23473;BME280;11909;52.516;13.564;2022-08-18T10:32:21;100445.44;;;29.92;42.19
23473;BME280;11909;52.516;13.564;2022-08-18T10:34:50;100442.44;;;30.07;42.12
23473;BME280;11909;52.516;13.564;2022-08-18T10:37:21;100455.94;;;30.26;41.09
23473;BME280;11909;52.516;13.564;2022-08-18T10:39:50;100452.94;;;30.41;40.09
23473;BME280;11909;52.516;13.564;2022-08-18T10:42:21;100459.09;;;30.63;37.65
23473;BME280;11909;52.516;13.564;2022-08-18T10:44:52;100444.69;;;30.81;38.43
23473;BME280;11909;52.516;13.564;2022-08-18T10:47:27;100445.69;;;30.95;39.37
23473;BME280;11909;52.516;13.564;2022-08-18T10:49:55;100444.22;;;31.10;38.16
23473;BME280;11909;52.516;13.564;2022-08-18T10:55:25;100444.91;;;31.42;35.93
23473;BME280;11909;52.516;13.564;2022-08-18T10:58:05;100441.56;;;31.47;36.36
23473;BME280;11909;52.516;13.564;2022-08-18T11:00:45;100440.09;;;31.63;35.60
23473;BME280;11909;52.516;13.564;2022-08-18T11:03:22;100445.38;;;31.84;34.91
23473;BME280;11909;52.516;13.564;2022-08-18T11:06:00;100430.66;;;31.89;36.46
23473;BME280;11909;52.516;13.564;2022-08-18T11:08:30;100435.47;;;31.93;36.25
23473;BME280;11909;52.516;13.564;2022-08-18T11:11:05;100438.84;;;32.04;34.54
23473;BME280;11909;52.516;13.564;2022-08-18T11:13:39;100440.16;;;32.19;33.33
23473;BME280;11909;52.516;13.564;2022-08-18T11:16:15;100425.72;;;32.30;32.85
23473;BME280;11909;52.516;13.564;2022-08-18T11:18:49;100429.88;;;32.26;32.96
23473;BME280;11909;52.516;13.564;2022-08-18T11:21:24;100429.00;;;32.29;32.52
23473;BME280;11909;52.516;13.564;2022-08-18T11:24:12;100423.22;;;32.36;35.57
23473;BME280;11909;52.516;13.564;2022-08-18T11:26:41;100425.00;;;32.46;32.92
23473;BME280;11909;52.516;13.564;2022-08-18T11:29:33;100421.47;;;32.59;32.29
23473;BME280;11909;52.516;13.564;2022-08-18T11:32:06;100419.28;;;32.67;34.37
23473;BME280;11909;52.516;13.564;2022-08-18T11:34:38;100421.13;;;32.73;33.06
23473;BME280;11909;52.516;13.564;2022-08-18T11:37:08;100425.06;;;32.96;30.78
23473;BME280;11909;52.516;13.564;2022-08-18T11:39:46;100420.19;;;33.13;31.13
23473;BME280;11909;52.516;13.564;2022-08-18T11:42:15;100417.47;;;33.23;33.03
23473;BME280;11909;52.516;13.564;2022-08-18T11:44:42;100423.22;;;33.36;30.69
23473;BME280;11909;52.516;13.564;2022-08-18T11:47:13;100423.88;;;33.43;29.93
23473;BME280;11909;52.516;13.564;2022-08-18T11:49:56;100415.81;;;33.25;31.28
23473;BME280;11909;52.516;13.564;2022-08-18T11:52:25;100419.72;;;33.15;31.29
23473;BME280;11909;52.516;13.564;2022-08-18T11:54:59;100417.84;;;33.08;29.89
23473;BME280;11909;52.516;13.564;2022-08-18T11:57:28;100410.94;;;32.93;30.07
23473;BME280;11909;52.516;13.564;2022-08-18T12:00:37;100406.19;;;32.69;30.90
23473;BME280;11909;52.516;13.564;2022-08-18T12:03:05;100404.88;;;32.57;31.62
23473;BME280;11909;52.516;13.564;2022-08-18T12:05:43;100395.47;;;32.44;32.37
23473;BME280;11909;52.516;13.564;2022-08-18T12:08:19;100401.00;;;32.31;32.58
23473;BME280;11909;52.516;13.564;2022-08-18T12:11:00;100401.59;;;32.22;32.10
23473;BME280;11909;52.516;13.564;2022-08-18T12:13:28;100398.81;;;32.18;32.58
23473;BME280;11909;52.516;13.564;2022-08-18T12:16:13;100406.16;;;32.16;31.85
23473;BME280;11909;52.516;13.564;2022-08-18T12:18:40;100402.19;;;32.13;33.59
23473;BME280;11909;52.516;13.564;2022-08-18T12:21:07;100401.38;;;32.13;34.00
23473;BME280;11909;52.516;13.564;2022-08-18T12:23:36;100406.97;;;32.16;32.97
23473;BME280;11909;52.516;13.564;2022-08-18T12:26:05;100403.75;;;32.35;33.63
23473;BME280;11909;52.516;13.564;2022-08-18T12:28:31;100403.09;;;32.64;33.13
23473;BME280;11909;52.516;13.564;2022-08-18T12:30:58;100393.44;;;32.78;32.75
23473;BME280;11909;52.516;13.564;2022-08-18T12:33:25;100390.75;;;32.87;31.98
23473;BME280;11909;52.516;13.564;2022-08-18T12:35:51;100395.09;;;33.08;30.33
23473;BME280;11909;52.516;13.564;2022-08-18T12:38:18;100400.00;;;33.08;30.79
23473;BME280;11909;52.516;13.564;2022-08-18T12:40:44;100399.03;;;33.14;30.57
23473;BME280;11909;52.516;13.564;2022-08-18T12:43:12;100383.66;;;33.12;31.10
23473;BME280;11909;52.516;13.564;2022-08-18T12:45:39;100372.09;;;33.19;32.27
23473;BME280;11909;52.516;13.564;2022-08-18T12:48:06;100382.94;;;33.24;31.15
23473;BME280;11909;52.516;13.564;2022-08-18T12:50:33;100372.34;;;33.25;32.50
23473;BME280;11909;52.516;13.564;2022-08-18T12:53:00;100365.88;;;33.24;32.80
23473;BME280;11909;52.516;13.564;2022-08-18T12:55:27;100368.72;;;33.24;32.34
23473;BME280;11909;52.516;13.564;2022-08-18T12:57:53;100373.59;;;33.24;31.95
23473;BME280;11909;52.516;13.564;2022-08-18T13:00:21;100362.13;;;33.27;31.78
23473;BME280;11909;52.516;13.564;2022-08-18T13:02:48;100358.53;;;33.40;30.99
23473;BME280;11909;52.516;13.564;2022-08-18T13:05:14;100364.19;;;33.56;31.78
23473;BME280;11909;52.516;13.564;2022-08-18T13:07:41;100360.22;;;33.67;31.25
23473;BME280;11909;52.516;13.564;2022-08-18T13:10:08;100361.06;;;33.80;30.01
23473;BME280;11909;52.516;13.564;2022-08-18T13:12:34;100360.22;;;33.96;30.43
23473;BME280;11909;52.516;13.564;2022-08-18T13:15:02;100357.50;;;34.06;30.44
23473;BME280;11909;52.516;13.564;2022-08-18T13:17:31;100351.22;;;34.11;29.38
23473;BME280;11909;52.516;13.564;2022-08-18T13:19:57;100345.88;;;34.13;29.45